Torino / Caselle International Airport LIMF

Flugplatz Daten

Name: Torino / Caselle International Airport

Ident: LIMF

Lat: 45,20080185

Long: 7,64963007

Platzhöhe: 989 ft

IataCode: TRN

City: Torino

Homepage: http://www.turin-airport.com/IT/voli/default.php

Metar

2021/08/05 13:20
LIMF 051320Z 28004KT 240V300 CAVOK 27/17 Q1007

Taf

2021/08/05 12:00
TAF LIMF 051100Z 0512/0612 VRB05KT 9999 FEW060
Gewünschte Webcam nicht vorhanden? Dann fügen Sie eine hinzu. Sie wird dann so schnell wie möglich freigeschaltet
Url: Title: